createdAt,value
2019-03-24T00:01:41.236Z,84.10
2019-03-24T00:04:07.358Z,84.10
2019-03-24T00:06:36.873Z,84.30
2019-03-24T00:09:08.161Z,84.10
2019-03-24T00:11:37.679Z,83.90
2019-03-24T00:14:07.305Z,83.80
2019-03-24T00:16:36.907Z,83.80
2019-03-24T00:19:06.514Z,83.50
2019-03-24T00:21:36.131Z,83.30
2019-03-24T00:24:05.729Z,83.10
2019-03-24T00:26:35.327Z,83.10
2019-03-24T00:29:05.059Z,83.10
2019-03-24T00:31:34.574Z,83.10
2019-03-24T00:34:04.542Z,83.00
2019-03-24T00:36:33.990Z,83.40
2019-03-24T00:39:04.583Z,83.20
2019-03-24T00:41:36.797Z,83.00
2019-03-24T00:44:06.466Z,83.10
2019-03-24T00:46:36.024Z,83.70
2019-03-24T00:49:05.696Z,83.10
2019-03-24T00:51:35.298Z,82.90
2019-03-24T00:54:05.182Z,82.70
2019-03-24T00:56:34.707Z,82.70
2019-03-24T00:59:04.236Z,82.80
2019-03-24T01:01:33.749Z,82.70
2019-03-24T01:04:03.315Z,82.60
2019-03-24T01:06:32.928Z,82.70
2019-03-24T01:09:02.584Z,82.80
2019-03-24T01:11:32.162Z,82.80
2019-03-24T01:14:01.661Z,82.70
2019-03-24T01:16:31.253Z,83.00
2019-03-24T01:19:00.945Z,83.00
2019-03-24T01:21:30.597Z,83.30
2019-03-24T01:24:00.189Z,83.00
2019-03-24T01:26:29.760Z,83.30
2019-03-24T01:28:59.302Z,83.30
2019-03-24T01:31:28.816Z,83.60
2019-03-24T01:33:58.330Z,83.80
2019-03-24T01:36:27.863Z,83.80
2019-03-24T01:38:57.367Z,83.80
2019-03-24T01:41:26.996Z,83.90
2019-03-24T01:43:56.509Z,84.70
2019-03-24T01:46:26.084Z,83.90
2019-03-24T01:48:55.530Z,83.90
2019-03-24T01:51:25.073Z,83.80
2019-03-24T01:53:54.675Z,83.80
2019-03-24T01:56:24.177Z,83.60
2019-03-24T01:58:53.620Z,83.60
2019-03-24T02:01:23.206Z,83.40
2019-03-24T02:03:52.778Z,83.50
2019-03-24T02:06:22.303Z,83.50
2019-03-24T02:08:51.842Z,83.50
2019-03-24T02:11:21.329Z,83.50
2019-03-24T02:13:50.916Z,83.60
2019-03-24T02:16:20.419Z,83.40
2019-03-24T02:18:50.038Z,83.80
2019-03-24T02:21:19.631Z,83.70
2019-03-24T02:23:49.256Z,84.70
2019-03-24T02:26:18.870Z,83.80
2019-03-24T02:28:48.482Z,83.70
2019-03-24T02:31:17.998Z,84.10
2019-03-24T02:33:47.571Z,84.00
2019-03-24T02:36:17.295Z,84.20
2019-03-24T02:38:46.927Z,85.00
2019-03-24T02:41:16.356Z,84.10
2019-03-24T02:43:45.846Z,84.10
2019-03-24T02:46:24.175Z,84.30
2019-03-24T02:48:46.676Z,84.20
2019-03-24T02:51:16.265Z,84.30
2019-03-24T02:53:45.802Z,84.40
2019-03-24T02:56:15.277Z,84.50
2019-03-24T02:58:44.867Z,85.20
2019-03-24T03:01:14.458Z,84.30
2019-03-24T03:03:44.034Z,84.30
2019-03-24T03:06:13.759Z,84.60
2019-03-24T03:08:43.258Z,84.50
2019-03-24T03:11:12.873Z,84.60
2019-03-24T03:13:42.458Z,84.80
2019-03-24T03:16:12.098Z,84.70
2019-03-24T03:18:41.674Z,84.90
2019-03-24T03:21:11.175Z,84.90
2019-03-24T03:23:40.626Z,85.80
2019-03-24T03:26:10.136Z,84.90
2019-03-24T03:28:39.682Z,85.00
2019-03-24T03:31:09.387Z,84.80
2019-03-24T03:33:38.979Z,84.90
2019-03-24T03:36:08.576Z,85.10
2019-03-24T03:38:38.151Z,85.10
2019-03-24T03:41:07.890Z,85.10
2019-03-24T03:43:37.452Z,85.20
2019-03-24T03:46:06.983Z,85.30
2019-03-24T03:48:36.613Z,85.20
2019-03-24T03:51:06.270Z,85.40
2019-03-24T03:53:35.767Z,85.30
2019-03-24T03:56:05.559Z,85.70
2019-03-24T03:58:35.148Z,85.70
2019-03-24T04:01:04.789Z,85.60
2019-03-24T04:03:34.293Z,85.60
2019-03-24T04:06:03.844Z,85.60
2019-03-24T04:08:33.387Z,85.60
2019-03-24T04:11:02.868Z,85.60
2019-03-24T04:13:32.420Z,85.80
2019-03-24T04:16:02.067Z,85.60
2019-03-24T04:18:31.580Z,85.70
2019-03-24T04:21:01.161Z,86.70
2019-03-24T04:23:30.667Z,86.10
2019-03-24T04:26:00.237Z,86.30
2019-03-24T04:28:29.844Z,86.20
2019-03-24T04:30:59.354Z,86.30
2019-03-24T04:33:29.122Z,86.40
2019-03-24T04:35:58.663Z,86.50
2019-03-24T04:38:28.341Z,86.60
2019-03-24T04:40:57.923Z,86.60
2019-03-24T04:43:27.583Z,86.70
2019-03-24T04:45:57.129Z,86.70
2019-03-24T04:48:26.678Z,86.60
2019-03-24T04:50:56.239Z,86.60
2019-03-24T04:53:25.814Z,86.80
2019-03-24T04:55:55.377Z,86.80
2019-03-24T04:58:25.032Z,86.90
2019-03-24T05:00:54.553Z,86.90
2019-03-24T05:03:24.142Z,86.90
2019-03-24T05:05:54.136Z,87.10
2019-03-24T05:08:25.404Z,87.00
2019-03-24T05:10:55.103Z,87.20
2019-03-24T05:13:24.861Z,87.40
2019-03-24T05:15:54.511Z,87.50
2019-03-24T05:18:24.076Z,87.80
2019-03-24T05:20:53.586Z,87.70
2019-03-24T05:23:23.160Z,87.60
2019-03-24T05:25:52.663Z,88.00
2019-03-24T05:28:22.190Z,87.90
2019-03-24T05:30:51.748Z,88.00
2019-03-24T05:33:21.254Z,88.30
2019-03-24T05:35:50.787Z,88.20
2019-03-24T05:38:20.241Z,88.40
2019-03-24T05:40:49.841Z,88.30
2019-03-24T05:43:19.305Z,88.40
2019-03-24T05:45:48.828Z,88.60
2019-03-24T05:48:18.319Z,88.50
2019-03-24T05:50:47.901Z,88.40
2019-03-24T05:53:17.446Z,88.60
2019-03-24T05:55:46.882Z,88.40
2019-03-24T05:58:16.363Z,88.70
2019-03-24T06:00:45.882Z,88.70
2019-03-24T06:03:15.566Z,88.80
2019-03-24T06:05:45.168Z,88.90
2019-03-24T06:08:15.229Z,88.80
2019-03-24T06:10:44.759Z,88.70
2019-03-24T06:13:14.183Z,88.70
2019-03-24T06:15:43.792Z,88.60
2019-03-24T06:18:13.420Z,88.50
2019-03-24T06:20:42.906Z,88.60
2019-03-24T06:23:12.440Z,89.50
2019-03-24T06:25:41.964Z,88.50
2019-03-24T06:28:11.439Z,88.80
2019-03-24T06:30:41.124Z,88.50
2019-03-24T06:33:10.643Z,88.40
2019-03-24T06:35:40.233Z,88.30
2019-03-24T06:38:09.854Z,88.30
2019-03-24T06:40:39.424Z,88.30
2019-03-24T06:43:08.962Z,88.20
2019-03-24T06:45:38.479Z,88.10
2019-03-24T06:48:08.010Z,87.60
2019-03-24T06:50:37.642Z,87.50
2019-03-24T06:53:07.269Z,87.60
2019-03-24T06:55:36.896Z,87.30
2019-03-24T06:58:06.554Z,87.20
2019-03-24T07:00:36.100Z,86.90
2019-03-24T07:03:05.717Z,86.70
2019-03-24T07:05:35.309Z,86.00
2019-03-24T07:08:04.925Z,86.30
2019-03-24T07:10:34.466Z,86.20
2019-03-24T07:13:04.052Z,85.90
2019-03-24T07:15:33.613Z,85.50
2019-03-24T07:18:08.359Z,85.60
2019-03-24T07:20:34.424Z,85.30
2019-03-24T07:23:03.993Z,84.70
2019-03-24T07:25:33.552Z,85.30
2019-03-24T07:28:03.135Z,85.10
2019-03-24T07:30:32.730Z,84.70
2019-03-24T07:33:02.311Z,84.40
2019-03-24T07:35:31.950Z,84.30
2019-03-24T07:38:01.605Z,83.70
2019-03-24T07:40:31.181Z,83.40
2019-03-24T07:43:00.774Z,83.20
2019-03-24T07:45:30.355Z,82.90
2019-03-24T07:47:59.940Z,82.50
2019-03-24T07:50:29.543Z,81.50
2019-03-24T07:52:59.146Z,77.90
2019-03-24T07:55:28.812Z,75.20
2019-03-24T07:57:58.999Z,72.80
2019-03-24T08:00:35.884Z,72.20
2019-03-24T08:03:05.825Z,70.00
2019-03-24T08:05:35.644Z,70.50
2019-03-24T08:08:05.306Z,69.90
2019-03-24T08:10:34.972Z,68.80
2019-03-24T08:13:04.554Z,68.50
2019-03-24T08:15:34.477Z,68.00
2019-03-24T08:18:04.091Z,69.30
2019-03-24T08:20:33.659Z,67.80
2019-03-24T08:23:03.283Z,66.90
2019-03-24T08:25:32.811Z,67.40
2019-03-24T08:28:02.455Z,66.60
2019-03-24T08:30:33.794Z,65.80
2019-03-24T08:33:03.411Z,66.30
2019-03-24T08:35:33.131Z,66.10
2019-03-24T08:38:02.794Z,69.40
2019-03-24T08:40:32.498Z,66.30
2019-03-24T08:43:02.102Z,65.60
2019-03-24T08:45:32.022Z,65.40
2019-03-24T08:48:01.718Z,65.70
2019-03-24T08:50:31.291Z,64.50
2019-03-24T08:53:00.751Z,66.10
2019-03-24T08:55:30.381Z,65.60
2019-03-24T08:58:00.023Z,65.80
2019-03-24T09:00:30.903Z,66.10
2019-03-24T09:03:00.790Z,65.00
2019-03-24T09:05:30.227Z,64.60
2019-03-24T09:07:59.702Z,64.40
2019-03-24T09:10:31.065Z,64.80
2019-03-24T09:13:00.659Z,64.10
2019-03-24T09:15:30.183Z,63.90
2019-03-24T09:17:59.835Z,66.50
2019-03-24T09:20:29.325Z,64.90
2019-03-24T09:22:58.951Z,63.80
2019-03-24T09:25:28.644Z,64.20
2019-03-24T09:27:58.405Z,63.60
2019-03-24T09:30:38.161Z,63.10
2019-03-24T09:33:07.774Z,62.70
2019-03-24T09:35:37.389Z,63.10
2019-03-24T09:38:07.280Z,63.00
2019-03-24T09:40:37.243Z,63.40
2019-03-24T09:43:07.263Z,62.70
2019-03-24T09:45:36.960Z,64.00
2019-03-24T09:48:06.748Z,63.20
2019-03-24T09:50:36.523Z,63.30
2019-03-24T09:53:06.264Z,63.00
2019-03-24T09:55:35.958Z,63.00
2019-03-24T09:58:05.573Z,62.20
2019-03-24T10:00:35.236Z,62.40
2019-03-24T10:03:04.994Z,62.60
2019-03-24T10:05:34.518Z,63.60
2019-03-24T10:08:04.143Z,62.90
2019-03-24T10:10:33.666Z,62.80
2019-03-24T10:13:03.219Z,62.70
2019-03-24T10:15:32.929Z,62.40
2019-03-24T10:18:02.590Z,61.80
2019-03-24T10:20:32.270Z,61.30
2019-03-24T10:23:01.805Z,61.60
2019-03-24T10:25:31.354Z,61.80
2019-03-24T10:28:00.936Z,59.90
2019-03-24T10:30:30.669Z,57.50
2019-03-24T10:33:00.296Z,58.80
2019-03-24T10:35:29.941Z,57.50
2019-03-24T10:37:59.631Z,57.30
2019-03-24T10:40:29.274Z,58.00
2019-03-24T10:42:58.986Z,58.70
2019-03-24T10:45:28.766Z,57.50
2019-03-24T10:47:58.351Z,56.10
2019-03-24T10:50:27.933Z,56.80
2019-03-24T10:52:57.535Z,57.20
2019-03-24T10:55:27.184Z,58.70
2019-03-24T10:57:56.852Z,57.80
2019-03-24T11:00:45.269Z,57.40
2019-03-24T11:03:15.026Z,58.20
2019-03-24T11:05:44.635Z,59.10
2019-03-24T11:08:14.270Z,59.70
2019-03-24T11:10:43.904Z,58.10
2019-03-24T11:13:13.553Z,58.50
2019-03-24T11:15:43.287Z,58.80
2019-03-24T11:18:14.227Z,59.40
2019-03-24T11:20:43.875Z,58.80
2019-03-24T11:23:13.551Z,59.10
2019-03-24T11:25:43.202Z,58.10
2019-03-24T11:28:12.929Z,58.60
2019-03-24T11:30:43.023Z,57.80
2019-03-24T11:33:12.751Z,57.00
2019-03-24T11:35:42.654Z,57.80
2019-03-24T11:38:12.286Z,57.60
2019-03-24T11:40:42.030Z,56.50
2019-03-24T11:43:11.530Z,58.10
2019-03-24T11:45:41.323Z,55.90
2019-03-24T11:48:11.039Z,56.30
2019-03-24T11:50:40.685Z,56.40
2019-03-24T11:53:10.339Z,55.60
2019-03-24T11:55:39.944Z,57.40
2019-03-24T11:58:09.594Z,58.20
2019-03-24T12:00:40.230Z,58.20
2019-03-24T12:03:09.877Z,59.20
2019-03-24T12:05:39.598Z,59.00
2019-03-24T12:08:09.296Z,57.80
2019-03-24T12:10:39.030Z,56.20
2019-03-24T12:13:08.663Z,54.50
2019-03-24T12:15:38.332Z,54.20
2019-03-24T12:18:07.974Z,52.80
2019-03-24T12:20:37.571Z,54.20
2019-03-24T12:23:07.191Z,52.50
2019-03-24T12:25:36.793Z,51.20
2019-03-24T12:28:06.444Z,53.20
2019-03-24T12:30:36.104Z,52.40
2019-03-24T12:33:06.238Z,50.60
2019-03-24T12:35:35.851Z,50.70
2019-03-24T12:38:05.573Z,53.10
2019-03-24T12:40:35.381Z,53.70
2019-03-24T12:43:04.990Z,54.80
2019-03-24T12:45:34.590Z,53.60
2019-03-24T12:48:04.222Z,53.80
2019-03-24T12:50:33.721Z,53.60
2019-03-24T12:53:03.338Z,53.40
2019-03-24T12:55:32.923Z,52.90
2019-03-24T12:58:02.463Z,53.40
2019-03-24T13:00:40.070Z,52.70
2019-03-24T13:03:09.713Z,53.90
2019-03-24T13:05:39.323Z,53.30
2019-03-24T13:08:18.995Z,53.60
2019-03-24T13:10:49.565Z,52.40
2019-03-24T13:13:19.257Z,53.20
2019-03-24T13:15:49.182Z,54.00
2019-03-24T13:18:18.787Z,52.80
2019-03-24T13:20:48.407Z,52.80
2019-03-24T13:23:18.147Z,53.50
2019-03-24T13:25:50.374Z,52.40
2019-03-24T13:28:19.086Z,52.30
2019-03-24T13:30:48.698Z,53.30
2019-03-24T13:33:18.410Z,51.80
2019-03-24T13:35:50.613Z,52.50
2019-03-24T13:38:20.245Z,53.30
2019-03-24T13:40:49.787Z,53.40
2019-03-24T13:43:19.475Z,53.40
2019-03-24T13:45:48.310Z,53.20
2019-03-24T13:48:17.935Z,54.20
2019-03-24T13:50:47.632Z,54.10
2019-03-24T13:53:17.257Z,53.10
2019-03-24T13:55:47.019Z,53.80
2019-03-24T13:58:16.587Z,54.00
2019-03-24T14:00:46.334Z,53.80
2019-03-24T14:03:15.942Z,53.90
2019-03-24T14:05:45.380Z,54.30
2019-03-24T14:08:14.968Z,54.30
2019-03-24T14:10:44.622Z,54.90
2019-03-24T14:13:14.218Z,55.10
2019-03-24T14:15:44.045Z,55.10
2019-03-24T14:18:13.653Z,54.80
2019-03-24T14:20:43.979Z,55.30
2019-03-24T14:23:13.743Z,55.70
2019-03-24T14:25:43.277Z,55.90
2019-03-24T14:28:12.920Z,55.80
2019-03-24T14:30:47.946Z,55.60
2019-03-24T14:33:17.837Z,55.30
2019-03-24T14:35:47.508Z,55.60
2019-03-24T14:38:17.275Z,54.60
2019-03-24T14:40:46.889Z,55.80
2019-03-24T14:43:16.529Z,55.90
2019-03-24T14:45:46.244Z,55.70
2019-03-24T14:48:16.300Z,55.90
2019-03-24T14:50:54.088Z,56.20
2019-03-24T14:53:17.176Z,55.80
2019-03-24T14:55:46.746Z,55.40
2019-03-24T14:58:16.362Z,55.70
2019-03-24T15:00:46.370Z,55.30
2019-03-24T15:03:15.959Z,54.90
2019-03-24T15:05:45.650Z,54.60
2019-03-24T15:08:15.690Z,54.10
2019-03-24T15:10:45.257Z,53.70
2019-03-24T15:13:15.037Z,53.90
2019-03-24T15:15:44.647Z,53.80
2019-03-24T15:18:14.299Z,53.90
2019-03-24T15:20:43.975Z,54.30
2019-03-24T15:23:13.626Z,54.00
2019-03-24T15:25:43.324Z,53.90
2019-03-24T15:28:12.950Z,53.90
2019-03-24T15:30:42.734Z,54.50
2019-03-24T15:33:12.288Z,54.90
2019-03-24T15:35:41.813Z,54.30
2019-03-24T15:38:11.467Z,54.60
2019-03-24T15:40:41.659Z,54.30
2019-03-24T15:43:30.136Z,54.40
2019-03-24T15:45:59.765Z,54.10
2019-03-24T15:48:29.372Z,54.40
2019-03-24T15:50:59.287Z,54.00
2019-03-24T15:53:28.966Z,54.10
2019-03-24T15:55:58.740Z,54.50
2019-03-24T15:58:28.372Z,54.10
2019-03-24T16:00:57.820Z,54.90
2019-03-24T16:03:27.379Z,55.00
2019-03-24T16:05:57.042Z,54.70
2019-03-24T16:08:26.699Z,54.60
2019-03-24T16:10:56.378Z,54.20
2019-03-24T16:13:26.288Z,53.20
2019-03-24T16:15:56.047Z,53.90
2019-03-24T16:18:25.910Z,54.20
2019-03-24T16:20:55.734Z,54.10
2019-03-24T16:23:25.382Z,53.80
2019-03-24T16:25:55.821Z,54.10
2019-03-24T16:28:25.986Z,54.40
2019-03-24T16:30:55.595Z,54.30
2019-03-24T16:33:25.303Z,54.60
2019-03-24T16:35:54.851Z,54.40
2019-03-24T16:38:24.351Z,54.40
2019-03-24T16:40:53.927Z,55.10
2019-03-24T16:43:23.649Z,55.30
2019-03-24T16:45:53.316Z,55.30
2019-03-24T16:48:23.204Z,54.70
2019-03-24T16:50:52.835Z,55.10
2019-03-24T16:53:22.646Z,55.10
2019-03-24T16:55:52.383Z,55.70
2019-03-24T16:58:22.205Z,54.90
2019-03-24T17:00:51.755Z,55.40
2019-03-24T17:03:21.464Z,55.20
2019-03-24T17:05:51.060Z,56.00
2019-03-24T17:08:20.793Z,55.70
2019-03-24T17:10:50.373Z,56.30
2019-03-24T17:13:19.925Z,56.40
2019-03-24T17:15:49.554Z,56.30
2019-03-24T17:18:19.194Z,56.90
2019-03-24T17:20:48.930Z,57.10
2019-03-24T17:23:18.855Z,56.70
2019-03-24T17:25:48.502Z,56.70
2019-03-24T17:28:18.214Z,57.00
2019-03-24T17:30:47.921Z,57.20
2019-03-24T17:33:17.520Z,57.20
2019-03-24T17:35:47.143Z,56.90
2019-03-24T17:38:16.790Z,57.10
2019-03-24T17:40:46.533Z,57.40
2019-03-24T17:43:16.255Z,57.60
2019-03-24T17:45:45.834Z,57.90
2019-03-24T17:48:15.354Z,57.90
2019-03-24T17:50:44.961Z,58.20
2019-03-24T17:53:14.614Z,58.50
2019-03-24T17:55:44.229Z,58.40
2019-03-24T17:58:13.878Z,58.60
2019-03-24T18:00:49.424Z,58.80
2019-03-24T18:03:19.057Z,58.80
2019-03-24T18:05:48.686Z,59.00
2019-03-24T18:08:18.386Z,59.10
2019-03-24T18:10:48.150Z,59.20
2019-03-24T18:13:17.833Z,59.30
2019-03-24T18:15:47.414Z,59.20
2019-03-24T18:18:17.047Z,59.20
2019-03-24T18:20:46.597Z,59.00
2019-03-24T18:23:16.328Z,59.20
2019-03-24T18:25:46.186Z,59.60
2019-03-24T18:28:15.832Z,59.90
2019-03-24T18:30:45.479Z,60.40
2019-03-24T18:33:15.104Z,60.70
2019-03-24T18:35:44.691Z,61.30
2019-03-24T18:38:14.291Z,61.90
2019-03-24T18:40:43.928Z,62.20
2019-03-24T18:43:13.613Z,62.60
2019-03-24T18:45:43.214Z,62.70
2019-03-24T18:48:12.883Z,62.60
2019-03-24T18:50:42.476Z,64.60
2019-03-24T18:53:12.073Z,64.10
2019-03-24T18:55:41.761Z,64.20
2019-03-24T18:58:11.367Z,64.20
2019-03-24T19:00:40.952Z,64.20
2019-03-24T19:03:10.552Z,64.60
2019-03-24T19:05:40.074Z,64.30
2019-03-24T19:08:09.717Z,63.90
2019-03-24T19:10:39.575Z,64.00
2019-03-24T19:13:09.411Z,63.50
2019-03-24T19:15:38.933Z,63.00
2019-03-24T19:18:08.814Z,62.30
2019-03-24T19:20:38.376Z,61.50
2019-03-24T19:23:07.980Z,60.80
2019-03-24T19:25:37.578Z,60.40
2019-03-24T19:28:07.191Z,60.40
2019-03-24T19:30:38.841Z,59.30
2019-03-24T19:33:08.759Z,59.80
2019-03-24T19:35:38.443Z,60.10
2019-03-24T19:38:08.017Z,60.00
2019-03-24T19:40:37.654Z,60.50
2019-03-24T19:43:07.243Z,60.20
2019-03-24T19:45:36.898Z,60.40
2019-03-24T19:48:06.627Z,60.70
2019-03-24T19:50:36.230Z,60.80
2019-03-24T19:53:06.362Z,61.30
2019-03-24T19:55:36.284Z,61.60
2019-03-24T19:58:06.175Z,61.70
2019-03-24T20:00:35.982Z,61.70
2019-03-24T20:03:05.768Z,61.60
2019-03-24T20:05:35.562Z,61.60
2019-03-24T20:08:05.206Z,61.80
2019-03-24T20:10:34.980Z,61.80
2019-03-24T20:13:04.714Z,62.00
2019-03-24T20:15:34.224Z,62.30
2019-03-24T20:18:03.911Z,62.30
2019-03-24T20:20:33.455Z,62.60
2019-03-24T20:23:03.040Z,62.80
2019-03-24T20:25:32.627Z,63.30
2019-03-24T20:28:02.278Z,63.30
2019-03-24T20:30:31.890Z,63.50
2019-03-24T20:33:01.535Z,63.60
2019-03-24T20:35:31.065Z,63.60
2019-03-24T20:38:00.690Z,63.40
2019-03-24T20:40:30.434Z,63.40
2019-03-24T20:42:59.985Z,63.40
2019-03-24T20:45:29.738Z,63.70
2019-03-24T20:47:59.352Z,63.50
2019-03-24T20:50:28.990Z,63.60
2019-03-24T20:53:04.136Z,63.90
2019-03-24T20:55:29.861Z,64.10
2019-03-24T20:57:59.500Z,64.30
2019-03-24T21:00:36.916Z,64.50
2019-03-24T21:03:08.502Z,64.50
2019-03-24T21:05:38.338Z,64.50
2019-03-24T21:08:08.059Z,64.40
2019-03-24T21:10:37.651Z,64.40
2019-03-24T21:13:07.232Z,64.40
2019-03-24T21:15:36.866Z,64.40
2019-03-24T21:18:06.600Z,64.60
2019-03-24T21:20:36.322Z,64.80
2019-03-24T21:23:05.952Z,64.60
2019-03-24T21:25:35.560Z,64.40
2019-03-24T21:28:05.217Z,64.40
2019-03-24T21:30:39.469Z,64.20
2019-03-24T21:33:09.247Z,64.50
2019-03-24T21:35:38.806Z,64.70
2019-03-24T21:38:08.413Z,64.60
2019-03-24T21:40:38.027Z,64.60
2019-03-24T21:43:07.629Z,64.50
2019-03-24T21:45:37.259Z,64.60
2019-03-24T21:48:07.796Z,64.60
2019-03-24T21:50:37.287Z,64.80
2019-03-24T21:53:06.986Z,64.80
2019-03-24T21:55:36.774Z,64.70
2019-03-24T21:58:06.401Z,64.60
2019-03-24T22:00:37.051Z,64.50
2019-03-24T22:03:07.631Z,64.50
2019-03-24T22:05:37.479Z,64.50
2019-03-24T22:08:07.125Z,64.60
2019-03-24T22:10:36.790Z,64.80
2019-03-24T22:13:06.670Z,64.50
2019-03-24T22:15:36.491Z,64.30
2019-03-24T22:18:06.755Z,64.00
2019-03-24T22:20:36.436Z,64.00
2019-03-24T22:23:07.712Z,64.10
2019-03-24T22:25:37.282Z,64.00
2019-03-24T22:28:06.844Z,64.10
2019-03-24T22:30:36.503Z,64.10
2019-03-24T22:33:06.193Z,64.30
2019-03-24T22:35:35.774Z,64.00
2019-03-24T22:38:05.613Z,64.10
2019-03-24T22:40:35.323Z,64.40
2019-03-24T22:43:05.018Z,64.40
2019-03-24T22:45:34.644Z,64.50
2019-03-24T22:48:04.255Z,64.60
2019-03-24T22:50:33.950Z,64.60
2019-03-24T22:53:03.579Z,64.60
2019-03-24T22:55:33.177Z,64.80
2019-03-24T22:58:02.844Z,65.00
2019-03-24T23:00:50.882Z,64.70
2019-03-24T23:03:20.775Z,65.50
2019-03-24T23:05:50.536Z,64.80
2019-03-24T23:08:20.133Z,64.80
2019-03-24T23:10:49.716Z,64.80
2019-03-24T23:13:19.371Z,65.00
2019-03-24T23:15:49.002Z,65.00
2019-03-24T23:18:18.519Z,64.80
2019-03-24T23:20:48.168Z,64.80
2019-03-24T23:23:17.842Z,64.70
2019-03-24T23:25:47.546Z,64.60
2019-03-24T23:28:17.067Z,64.40
2019-03-24T23:30:46.687Z,64.50
2019-03-24T23:33:16.386Z,64.30
2019-03-24T23:35:45.959Z,64.50
2019-03-24T23:38:15.522Z,64.60
2019-03-24T23:40:45.026Z,64.60
2019-03-24T23:43:14.551Z,64.80
2019-03-24T23:45:44.204Z,65.50
2019-03-24T23:48:13.690Z,66.10
2019-03-24T23:50:43.246Z,66.40
2019-03-24T23:53:12.739Z,66.60
2019-03-24T23:55:42.379Z,66.80
2019-03-24T23:58:12.083Z,66.60
